sensor_id;sensor_type;location;lat;lon;timestamp;pressure;altitude;pressure_sealevel;temperature;humidity
12759;BME280;20944;47.048;15.390;2023-05-11T00:00:24;97267.94;;;13.02;100.00
12759;BME280;20944;47.048;15.390;2023-05-11T00:02:52;97332.41;;;13.53;100.00
12759;BME280;20944;47.048;15.390;2023-05-11T00:05:22;97333.06;;;13.58;100.00
12759;BME280;20944;47.048;15.390;2023-05-11T00:07:51;97335.09;;;13.52;100.00
12759;BME280;20944;47.048;15.390;2023-05-11T00:10:19;97331.75;;;13.48;100.00
12759;BME280;20944;47.048;15.390;2023-05-11T00:12:47;97329.13;;;13.48;100.00
12759;BME280;20944;47.048;15.390;2023-05-11T00:15:15;97324.44;;;13.55;100.00
12759;BME280;20944;47.048;15.390;2023-05-11T00:17:44;97324.03;;;13.43;100.00
12759;BME280;20944;47.048;15.390;2023-05-11T00:20:12;97320.81;;;13.37;100.00
12759;BME280;20944;47.048;15.390;2023-05-11T00:22:42;97326.94;;;13.37;100.00
12759;BME280;20944;47.048;15.390;2023-05-11T00:25:10;97292.59;;;13.20;100.00
12759;BME280;20944;47.048;15.390;2023-05-11T00:27:38;97320.13;;;13.33;100.00
12759;BME280;20944;47.048;15.390;2023-05-11T00:30:12;97304.88;;;13.19;100.00
12759;BME280;20944;47.048;15.390;2023-05-11T00:32:42;97297.13;;;13.16;100.00
12759;BME280;20944;47.048;15.390;2023-05-11T00:35:11;97305.66;;;13.23;100.00
12759;BME280;20944;47.048;15.390;2023-05-11T00:37:39;97310.97;;;13.21;100.00
12759;BME280;20944;47.048;15.390;2023-05-11T00:40:10;97312.53;;;13.26;100.00
12759;BME280;20944;47.048;15.390;2023-05-11T00:42:38;97280.63;;;13.13;100.00
12759;BME280;20944;47.048;15.390;2023-05-11T00:45:07;97312.00;;;13.38;100.00
12759;BME280;20944;47.048;15.390;2023-05-11T00:47:35;97306.03;;;13.34;100.00
12759;BME280;20944;47.048;15.390;2023-05-11T00:50:05;97301.97;;;13.27;100.00
12759;BME280;20944;47.048;15.390;2023-05-11T00:52:34;97304.03;;;13.20;100.00
12759;BME280;20944;47.048;15.390;2023-05-11T00:55:02;97298.59;;;13.23;100.00
12759;BME280;20944;47.048;15.390;2023-05-11T00:57:32;97300.38;;;13.23;100.00
12759;BME280;20944;47.048;15.390;2023-05-11T01:00:02;97307.66;;;13.16;100.00
12759;BME280;20944;47.048;15.390;2023-05-11T01:02:30;97283.59;;;13.05;100.00
12759;BME280;20944;47.048;15.390;2023-05-11T01:04:59;97271.50;;;13.01;100.00
12759;BME280;20944;47.048;15.390;2023-05-11T01:07:32;97304.88;;;13.21;100.00
12759;BME280;20944;47.048;15.390;2023-05-11T01:10:07;97300.84;;;13.33;100.00
12759;BME280;20944;47.048;15.390;2023-05-11T01:12:49;97296.97;;;13.21;100.00
12759;BME280;20944;47.048;15.390;2023-05-11T01:15:24;97260.25;;;12.98;100.00
12759;BME280;20944;47.048;15.390;2023-05-11T01:17:59;97297.00;;;13.19;100.00
12759;BME280;20944;47.048;15.390;2023-05-11T01:20:29;97292.00;;;13.13;100.00
12759;BME280;20944;47.048;15.390;2023-05-11T01:23:39;97225.41;;;12.72;100.00
12759;BME280;20944;47.048;15.390;2023-05-11T01:26:26;97299.59;;;13.21;100.00
12759;BME280;20944;47.048;15.390;2023-05-11T01:29:40;97302.88;;;13.26;100.00
12759;BME280;20944;47.048;15.390;2023-05-11T01:32:16;97270.31;;;13.08;100.00
12759;BME280;20944;47.048;15.390;2023-05-11T01:34:47;97295.78;;;13.28;100.00
12759;BME280;20944;47.048;15.390;2023-05-11T01:37:19;97237.13;;;12.85;100.00
12759;BME280;20944;47.048;15.390;2023-05-11T01:39:51;97304.59;;;13.27;100.00
12759;BME280;20944;47.048;15.390;2023-05-11T01:42:21;97304.38;;;13.32;100.00
12759;BME280;20944;47.048;15.390;2023-05-11T01:44:52;97298.25;;;13.31;100.00
12759;BME280;20944;47.048;15.390;2023-05-11T01:47:24;97302.59;;;13.32;100.00
12759;BME280;20944;47.048;15.390;2023-05-11T01:49:53;97302.22;;;13.41;100.00
12759;BME280;20944;47.048;15.390;2023-05-11T01:52:24;97273.56;;;13.13;100.00
12759;BME280;20944;47.048;15.390;2023-05-11T01:54:53;97303.69;;;13.28;100.00
12759;BME280;20944;47.048;15.390;2023-05-11T01:57:22;97300.53;;;13.18;100.00
12759;BME280;20944;47.048;15.390;2023-05-11T01:59:52;97269.66;;;13.03;100.00
12759;BME280;20944;47.048;15.390;2023-05-11T02:02:22;97286.81;;;13.12;100.00
12759;BME280;20944;47.048;15.390;2023-05-11T02:04:52;97279.84;;;13.11;100.00
12759;BME280;20944;47.048;15.390;2023-05-11T02:07:21;97264.41;;;13.03;100.00
12759;BME280;20944;47.048;15.390;2023-05-11T02:09:52;97272.38;;;13.02;100.00
12759;BME280;20944;47.048;15.390;2023-05-11T02:12:22;97293.66;;;13.16;100.00
12759;BME280;20944;47.048;15.390;2023-05-11T02:14:53;97294.34;;;13.21;100.00
12759;BME280;20944;47.048;15.390;2023-05-11T02:17:23;97299.84;;;13.15;100.00
12759;BME280;20944;47.048;15.390;2023-05-11T02:19:52;97297.22;;;13.15;100.00
12759;BME280;20944;47.048;15.390;2023-05-11T02:22:22;97298.25;;;13.11;100.00
12759;BME280;20944;47.048;15.390;2023-05-11T02:24:51;97293.00;;;13.11;100.00
12759;BME280;20944;47.048;15.390;2023-05-11T02:27:20;97293.41;;;13.22;100.00
12759;BME280;20944;47.048;15.390;2023-05-11T02:29:48;97267.63;;;13.10;100.00
12759;BME280;20944;47.048;15.390;2023-05-11T02:32:19;97322.28;;;13.23;100.00
12759;BME280;20944;47.048;15.390;2023-05-11T02:34:54;97297.91;;;13.18;100.00
12759;BME280;20944;47.048;15.390;2023-05-11T02:37:26;97286.44;;;13.21;100.00
12759;BME280;20944;47.048;15.390;2023-05-11T02:39:57;97285.59;;;13.19;100.00
12759;BME280;20944;47.048;15.390;2023-05-11T02:42:27;97287.38;;;13.18;100.00
12759;BME280;20944;47.048;15.390;2023-05-11T02:45:00;97259.31;;;12.99;100.00
12759;BME280;20944;47.048;15.390;2023-05-11T02:47:33;97289.16;;;13.18;100.00
12759;BME280;20944;47.048;15.390;2023-05-11T02:50:08;97279.50;;;13.18;100.00
12759;BME280;20944;47.048;15.390;2023-05-11T02:52:39;97261.50;;;13.09;100.00
12759;BME280;20944;47.048;15.390;2023-05-11T02:55:09;97279.19;;;13.26;100.00
12759;BME280;20944;47.048;15.390;2023-05-11T02:57:38;97244.31;;;13.01;100.00
12759;BME280;20944;47.048;15.390;2023-05-11T03:00:07;97290.63;;;13.25;100.00
12759;BME280;20944;47.048;15.390;2023-05-11T03:02:36;97261.34;;;13.12;100.00
12759;BME280;20944;47.048;15.390;2023-05-11T03:05:04;97277.38;;;13.28;100.00
12759;BME280;20944;47.048;15.390;2023-05-11T03:07:34;97280.91;;;13.27;100.00
12759;BME280;20944;47.048;15.390;2023-05-11T03:10:04;97271.38;;;13.25;100.00
12759;BME280;20944;47.048;15.390;2023-05-11T03:12:34;97246.56;;;13.10;100.00
12759;BME280;20944;47.048;15.390;2023-05-11T03:15:03;97239.88;;;13.03;100.00
12759;BME280;20944;47.048;15.390;2023-05-11T03:17:32;97281.13;;;13.22;100.00
12759;BME280;20944;47.048;15.390;2023-05-11T03:20:02;97279.16;;;13.28;99.85
12759;BME280;20944;47.048;15.390;2023-05-11T03:22:31;97276.94;;;13.17;100.00
12759;BME280;20944;47.048;15.390;2023-05-11T03:25:02;97279.56;;;13.17;100.00
12759;BME280;20944;47.048;15.390;2023-05-11T03:27:32;97278.72;;;13.16;100.00
12759;BME280;20944;47.048;15.390;2023-05-11T03:30:03;97278.22;;;13.29;100.00
12759;BME280;20944;47.048;15.390;2023-05-11T03:32:32;97244.28;;;13.02;99.09
12759;BME280;20944;47.048;15.390;2023-05-11T03:35:00;97231.59;;;12.91;98.51
12759;BME280;20944;47.048;15.390;2023-05-11T03:37:29;97277.63;;;13.22;98.42
12759;BME280;20944;47.048;15.390;2023-05-11T03:40:00;97285.38;;;13.25;98.25
12759;BME280;20944;47.048;15.390;2023-05-11T03:42:32;97277.63;;;13.22;97.38
12759;BME280;20944;47.048;15.390;2023-05-11T03:45:01;97282.03;;;13.21;97.13
12759;BME280;20944;47.048;15.390;2023-05-11T03:47:33;97253.69;;;13.08;96.63
12759;BME280;20944;47.048;15.390;2023-05-11T03:50:03;97279.41;;;13.21;96.48
12759;BME280;20944;47.048;15.390;2023-05-11T03:52:34;97282.69;;;13.27;94.76
12759;BME280;20944;47.048;15.390;2023-05-11T03:55:05;97274.00;;;13.25;95.38
12759;BME280;20944;47.048;15.390;2023-05-11T03:57:34;97279.19;;;13.26;95.54
12759;BME280;20944;47.048;15.390;2023-05-11T04:00:03;97242.22;;;13.09;94.73
12759;BME280;20944;47.048;15.390;2023-05-11T04:02:33;97271.09;;;13.31;94.92
12759;BME280;20944;47.048;15.390;2023-05-11T04:05:06;97212.25;;;12.92;94.19
12759;BME280;20944;47.048;15.390;2023-05-11T04:07:36;97277.38;;;13.28;93.40
12759;BME280;20944;47.048;15.390;2023-05-11T04:10:08;97278.28;;;13.27;93.34
12759;BME280;20944;47.048;15.390;2023-05-11T04:12:37;97275.31;;;13.35;92.87
12759;BME280;20944;47.048;15.390;2023-05-11T04:15:06;97260.44;;;13.34;92.37
12759;BME280;20944;47.048;15.390;2023-05-11T04:17:34;97259.72;;;13.30;92.54
12759;BME280;20944;47.048;15.390;2023-05-11T04:20:03;97275.13;;;13.39;93.10
12759;BME280;20944;47.048;15.390;2023-05-11T04:22:31;97267.91;;;13.43;93.00
12759;BME280;20944;47.048;15.390;2023-05-11T04:25:00;97216.78;;;13.09;92.08
12759;BME280;20944;47.048;15.390;2023-05-11T04:27:31;97249.34;;;13.27;90.99
12759;BME280;20944;47.048;15.390;2023-05-11T04:30:00;97275.88;;;13.41;91.58
12759;BME280;20944;47.048;15.390;2023-05-11T04:32:28;97272.22;;;13.45;90.41
12759;BME280;20944;47.048;15.390;2023-05-11T04:34:56;97275.75;;;13.44;89.90
12759;BME280;20944;47.048;15.390;2023-05-11T04:37:25;97279.28;;;13.43;90.61
12759;BME280;20944;47.048;15.390;2023-05-11T04:39:53;97281.94;;;13.43;90.67
12759;BME280;20944;47.048;15.390;2023-05-11T04:42:21;97272.53;;;13.38;89.84
12759;BME280;20944;47.048;15.390;2023-05-11T04:44:53;97248.78;;;13.19;89.51
12759;BME280;20944;47.048;15.390;2023-05-11T04:47:21;97254.59;;;13.27;89.86
12759;BME280;20944;47.048;15.390;2023-05-11T04:49:49;97286.91;;;13.49;88.85
12759;BME280;20944;47.048;15.390;2023-05-11T04:52:17;97226.38;;;13.10;89.89
12759;BME280;20944;47.048;15.390;2023-05-11T04:54:46;97286.34;;;13.43;89.47
12759;BME280;20944;47.048;15.390;2023-05-11T04:57:14;97277.59;;;13.42;89.27
12759;BME280;20944;47.048;15.390;2023-05-11T04:59:42;97281.81;;;13.46;89.21
12759;BME280;20944;47.048;15.390;2023-05-11T05:02:12;97285.09;;;13.52;88.38
12759;BME280;20944;47.048;15.390;2023-05-11T05:04:40;97205.69;;;13.03;88.33
12759;BME280;20944;47.048;15.390;2023-05-11T05:07:08;97084.34;;;12.32;88.33
12759;BME280;20944;47.048;15.390;2023-05-11T05:09:38;97280.59;;;13.54;88.74
12759;BME280;20944;47.048;15.390;2023-05-11T05:12:10;97284.81;;;13.58;88.04
12759;BME280;20944;47.048;15.390;2023-05-11T05:14:38;97276.13;;;13.56;87.76
12759;BME280;20944;47.048;15.390;2023-05-11T05:17:06;97284.09;;;13.54;88.00
12759;BME280;20944;47.048;15.390;2023-05-11T05:19:36;97239.41;;;13.34;87.77
12759;BME280;20944;47.048;15.390;2023-05-11T05:22:04;97279.59;;;13.56;87.88
12759;BME280;20944;47.048;15.390;2023-05-11T05:24:33;97237.56;;;13.15;88.31
12759;BME280;20944;47.048;15.390;2023-05-11T05:27:01;97231.13;;;13.22;88.82
12759;BME280;20944;47.048;15.390;2023-05-11T05:29:29;97229.91;;;13.30;88.78
12759;BME280;20944;47.048;15.390;2023-05-11T05:31:58;97286.25;;;13.65;87.42
12759;BME280;20944;47.048;15.390;2023-05-11T05:34:26;97287.16;;;13.64;87.42
12759;BME280;20944;47.048;15.390;2023-05-11T05:36:55;97262.88;;;13.57;87.40
12759;BME280;20944;47.048;15.390;2023-05-11T05:39:24;97280.13;;;13.64;87.74
12759;BME280;20944;47.048;15.390;2023-05-11T05:41:52;97289.50;;;13.70;88.05
12759;BME280;20944;47.048;15.390;2023-05-11T05:44:20;97245.25;;;13.40;87.26
12759;BME280;20944;47.048;15.390;2023-05-11T05:46:48;97286.75;;;13.73;87.40
12759;BME280;20944;47.048;15.390;2023-05-11T05:49:17;97288.44;;;13.74;87.85
12759;BME280;20944;47.048;15.390;2023-05-11T05:51:45;97291.00;;;13.75;87.31
12759;BME280;20944;47.048;15.390;2023-05-11T05:54:15;97291.84;;;13.76;87.18
12759;BME280;20944;47.048;15.390;2023-05-11T05:56:43;97289.16;;;13.77;86.88
12759;BME280;20944;47.048;15.390;2023-05-11T05:59:11;97277.78;;;13.77;85.64
12759;BME280;20944;47.048;15.390;2023-05-11T06:01:40;97287.03;;;13.86;84.29
12759;BME280;20944;47.048;15.390;2023-05-11T06:04:12;97289.47;;;13.90;83.38
12759;BME280;20944;47.048;15.390;2023-05-11T06:06:40;97278.63;;;13.77;82.70
12759;BME280;20944;47.048;15.390;2023-05-11T06:09:09;97294.72;;;13.90;82.83
12759;BME280;20944;47.048;15.390;2023-05-11T06:11:39;97274.22;;;13.78;82.89
12759;BME280;20944;47.048;15.390;2023-05-11T06:14:07;97241.19;;;13.52;84.43
12759;BME280;20944;47.048;15.390;2023-05-11T06:16:36;97302.81;;;13.86;83.49
12759;BME280;20944;47.048;15.390;2023-05-11T06:19:04;97276.03;;;13.76;83.85
12759;BME280;20944;47.048;15.390;2023-05-11T06:21:33;97292.50;;;13.81;82.29
12759;BME280;20944;47.048;15.390;2023-05-11T06:24:01;97290.78;;;13.80;83.45
12759;BME280;20944;47.048;15.390;2023-05-11T06:26:29;97295.97;;;13.82;83.03
12759;BME280;20944;47.048;15.390;2023-05-11T06:28:59;97300.41;;;13.81;82.84
12759;BME280;20944;47.048;15.390;2023-05-11T06:31:27;97304.69;;;13.84;82.81
12759;BME280;20944;47.048;15.390;2023-05-11T06:33:57;97299.75;;;13.95;79.15
12759;BME280;20944;47.048;15.390;2023-05-11T06:36:26;97303.75;;;13.85;80.00
12759;BME280;20944;47.048;15.390;2023-05-11T06:38:54;97289.94;;;13.80;81.69
12759;BME280;20944;47.048;15.390;2023-05-11T06:41:22;97296.72;;;13.85;81.34
12759;BME280;20944;47.048;15.390;2023-05-11T06:43:50;97294.00;;;13.87;79.65
12759;BME280;20944;47.048;15.390;2023-05-11T06:46:20;97300.31;;;13.83;80.25
12759;BME280;20944;47.048;15.390;2023-05-11T06:48:48;97266.88;;;13.66;81.12
12759;BME280;20944;47.048;15.390;2023-05-11T06:51:17;97304.81;;;13.81;80.91
12759;BME280;20944;47.048;15.390;2023-05-11T06:53:46;97297.75;;;13.81;80.53
12759;BME280;20944;47.048;15.390;2023-05-11T06:56:15;97293.31;;;13.83;79.89
12759;BME280;20944;47.048;15.390;2023-05-11T06:58:43;97290.50;;;13.86;80.99
12759;BME280;20944;47.048;15.390;2023-05-11T07:01:12;97261.25;;;13.73;79.73
12759;BME280;20944;47.048;15.390;2023-05-11T07:03:42;97287.81;;;13.88;78.76
12759;BME280;20944;47.048;15.390;2023-05-11T07:06:10;97283.63;;;13.84;78.82
12759;BME280;20944;47.048;15.390;2023-05-11T07:08:38;97283.81;;;13.79;78.85
12759;BME280;20944;47.048;15.390;2023-05-11T07:11:07;97258.19;;;13.64;78.58
12759;BME280;20944;47.048;15.390;2023-05-11T07:13:35;97298.78;;;13.79;79.41
12759;BME280;20944;47.048;15.390;2023-05-11T07:16:04;97290.16;;;13.75;79.71
12759;BME280;20944;47.048;15.390;2023-05-11T07:18:32;97299.47;;;13.82;79.40
12759;BME280;20944;47.048;15.390;2023-05-11T07:21:02;97277.13;;;13.72;78.99
12759;BME280;20944;47.048;15.390;2023-05-11T07:23:31;97287.38;;;13.78;79.32
12759;BME280;20944;47.048;15.390;2023-05-11T07:25:59;97256.84;;;13.55;78.67
12759;BME280;20944;47.048;15.390;2023-05-11T07:28:29;97297.13;;;13.76;79.95
12759;BME280;20944;47.048;15.390;2023-05-11T07:30:57;97266.66;;;13.52;79.43
12759;BME280;20944;47.048;15.390;2023-05-11T07:33:26;97283.50;;;13.47;80.43
12759;BME280;20944;47.048;15.390;2023-05-11T07:35:55;97309.66;;;13.71;80.30
12759;BME280;20944;47.048;15.390;2023-05-11T07:38:25;97296.78;;;13.65;80.18
12759;BME280;20944;47.048;15.390;2023-05-11T07:40:53;97251.63;;;13.35;79.81
12759;BME280;20944;47.048;15.390;2023-05-11T07:43:21;97305.09;;;13.74;80.47
12759;BME280;20944;47.048;15.390;2023-05-11T07:45:50;97294.25;;;13.62;80.42
12759;BME280;20944;47.048;15.390;2023-05-11T07:48:18;97313.94;;;13.73;80.41
12759;BME280;20944;47.048;15.390;2023-05-11T07:50:46;97288.50;;;13.54;80.84
12759;BME280;20944;47.048;15.390;2023-05-11T07:53:15;97316.47;;;13.75;80.24
12759;BME280;20944;47.048;15.390;2023-05-11T07:55:45;97283.81;;;13.60;80.96
12759;BME280;20944;47.048;15.390;2023-05-11T07:58:13;97306.88;;;13.74;81.59
12759;BME280;20944;47.048;15.390;2023-05-11T08:00:42;97284.81;;;13.58;81.30
12759;BME280;20944;47.048;15.390;2023-05-11T08:03:10;97308.16;;;13.65;81.62
12759;BME280;20944;47.048;15.390;2023-05-11T08:05:38;97317.13;;;13.80;82.52
12759;BME280;20944;47.048;15.390;2023-05-11T08:08:07;97311.50;;;13.88;81.42
12759;BME280;20944;47.048;15.390;2023-05-11T08:10:35;97309.22;;;13.80;82.47
12759;BME280;20944;47.048;15.390;2023-05-11T08:13:05;97259.38;;;13.38;83.01
12759;BME280;20944;47.048;15.390;2023-05-11T08:15:33;97237.41;;;13.18;83.68
12759;BME280;20944;47.048;15.390;2023-05-11T08:18:01;97286.56;;;13.57;83.88
12759;BME280;20944;47.048;15.390;2023-05-11T08:20:29;97303.66;;;13.67;85.00
12759;BME280;20944;47.048;15.390;2023-05-11T08:22:58;97258.94;;;13.28;84.83
12759;BME280;20944;47.048;15.390;2023-05-11T08:25:26;97310.06;;;13.62;85.41
12759;BME280;20944;47.048;15.390;2023-05-11T08:27:55;97303.28;;;13.56;85.48
12759;BME280;20944;47.048;15.390;2023-05-11T08:30:24;97299.97;;;13.53;85.62
12759;BME280;20944;47.048;15.390;2023-05-11T08:32:53;97295.94;;;13.44;87.14
12759;BME280;20944;47.048;15.390;2023-05-11T08:35:25;97280.84;;;13.29;88.78
12759;BME280;20944;47.048;15.390;2023-05-11T08:37:53;97303.91;;;13.42;89.44
12759;BME280;20944;47.048;15.390;2023-05-11T08:40:23;97276.50;;;13.28;89.37
12759;BME280;20944;47.048;15.390;2023-05-11T08:42:54;97316.22;;;13.42;90.21
12759;BME280;20944;47.048;15.390;2023-05-11T08:45:26;97316.50;;;13.36;90.50
12759;BME280;20944;47.048;15.390;2023-05-11T08:47:54;97312.09;;;13.36;91.49
12759;BME280;20944;47.048;15.390;2023-05-11T08:50:23;97310.19;;;13.40;92.11
12759;BME280;20944;47.048;15.390;2023-05-11T08:52:51;97302.91;;;13.45;92.16
12759;BME280;20944;47.048;15.390;2023-05-11T08:55:21;97291.50;;;13.26;92.24
12759;BME280;20944;47.048;15.390;2023-05-11T08:57:50;97304.66;;;13.46;92.01
12759;BME280;20944;47.048;15.390;2023-05-11T09:00:21;97308.13;;;13.46;91.37
12759;BME280;20944;47.048;15.390;2023-05-11T09:02:52;97303.53;;;13.52;91.85
12759;BME280;20944;47.048;15.390;2023-05-11T09:05:20;97305.22;;;13.53;91.15
12759;BME280;20944;47.048;15.390;2023-05-11T09:07:52;97301.75;;;13.52;92.47
12759;BME280;20944;47.048;15.390;2023-05-11T09:10:21;97297.38;;;13.51;91.95
12759;BME280;20944;47.048;15.390;2023-05-11T09:12:49;97274.72;;;13.28;91.42
12759;BME280;20944;47.048;15.390;2023-05-11T09:15:18;97277.78;;;13.38;91.47
12759;BME280;20944;47.048;15.390;2023-05-11T09:17:47;97295.94;;;13.44;93.56
12759;BME280;20944;47.048;15.390;2023-05-11T09:20:25;97260.84;;;13.25;90.70
12759;BME280;20944;47.048;15.390;2023-05-11T09:22:53;97291.81;;;13.38;95.60
12759;BME280;20944;47.048;15.390;2023-05-11T09:25:23;97300.78;;;13.34;97.72
12759;BME280;20944;47.048;15.390;2023-05-11T09:27:51;97284.19;;;13.32;99.29
12759;BME280;20944;47.048;15.390;2023-05-11T09:30:21;97288.91;;;13.44;99.11
12759;BME280;20944;47.048;15.390;2023-05-11T09:32:51;97301.94;;;13.47;98.89
12759;BME280;20944;47.048;15.390;2023-05-11T09:35:23;97313.25;;;13.49;100.00
12759;BME280;20944;47.048;15.390;2023-05-11T09:37:59;97252.69;;;13.10;100.00
12759;BME280;20944;47.048;15.390;2023-05-11T09:40:31;97269.97;;;13.16;100.00
12759;BME280;20944;47.048;15.390;2023-05-11T09:43:01;97293.16;;;13.28;100.00
12759;BME280;20944;47.048;15.390;2023-05-11T09:45:39;97296.75;;;13.26;100.00
12759;BME280;20944;47.048;15.390;2023-05-11T09:48:23;97244.59;;;12.94;100.00
12759;BME280;20944;47.048;15.390;2023-05-11T09:50:58;97293.84;;;13.11;100.00
12759;BME280;20944;47.048;15.390;2023-05-11T09:53:34;97288.06;;;13.03;100.00
12759;BME280;20944;47.048;15.390;2023-05-11T09:56:03;97286.06;;;12.88;100.00
12759;BME280;20944;47.048;15.390;2023-05-11T09:58:45;97286.47;;;12.79;100.00
12759;BME280;20944;47.048;15.390;2023-05-11T10:01:15;97289.38;;;12.73;100.00
12759;BME280;20944;47.048;15.390;2023-05-11T10:03:51;97282.13;;;12.57;100.00
12759;BME280;20944;47.048;15.390;2023-05-11T10:06:44;97267.97;;;12.39;100.00
12759;BME280;20944;47.048;15.390;2023-05-11T10:09:15;97096.91;;;11.41;100.00
12759;BME280;20944;47.048;15.390;2023-05-11T10:11:45;97281.25;;;12.57;100.00
12759;BME280;20944;47.048;15.390;2023-05-11T10:14:13;97281.91;;;12.62;100.00
12759;BME280;20944;47.048;15.390;2023-05-11T10:16:43;97245.84;;;12.45;100.00
12759;BME280;20944;47.048;15.390;2023-05-11T10:19:12;97282.91;;;12.59;100.00
12759;BME280;20944;47.048;15.390;2023-05-11T10:21:43;97287.94;;;12.43;100.00
12759;BME280;20944;47.048;15.390;2023-05-11T10:24:12;97248.06;;;12.12;100.00
12759;BME280;20944;47.048;15.390;2023-05-11T10:26:43;97273.13;;;12.21;100.00
12759;BME280;20944;47.048;15.390;2023-05-11T10:29:12;97294.06;;;12.22;100.00
12759;BME280;20944;47.048;15.390;2023-05-11T10:31:41;97288.25;;;12.14;100.00
12759;BME280;20944;47.048;15.390;2023-05-11T10:34:10;97289.06;;;12.16;100.00
12759;BME280;20944;47.048;15.390;2023-05-11T10:36:39;97232.47;;;11.85;100.00
12759;BME280;20944;47.048;15.390;2023-05-11T10:39:09;97209.06;;;11.79;100.00
12759;BME280;20944;47.048;15.390;2023-05-11T10:41:46;97287.53;;;12.32;100.00
12759;BME280;20944;47.048;15.390;2023-05-11T10:50:27;97287.44;;;12.56;100.00
12759;BME280;20944;47.048;15.390;2023-05-11T10:53:10;97272.84;;;12.49;100.00
12759;BME280;20944;47.048;15.390;2023-05-11T10:55:56;97286.50;;;12.57;100.00
12759;BME280;20944;47.048;15.390;2023-05-11T10:58:37;97281.88;;;12.63;100.00
12759;BME280;20944;47.048;15.390;2023-05-11T11:01:32;97278.66;;;12.77;100.00
12759;BME280;20944;47.048;15.390;2023-05-11T11:04:03;97251.72;;;12.72;100.00
12759;BME280;20944;47.048;15.390;2023-05-11T11:06:34;97286.16;;;12.86;100.00
12759;BME280;20944;47.048;15.390;2023-05-11T11:09:05;97289.31;;;12.94;100.00
12759;BME280;20944;47.048;15.390;2023-05-11T11:11:37;97230.16;;;12.64;100.00
12759;BME280;20944;47.048;15.390;2023-05-11T11:14:06;97279.25;;;13.04;100.00
12759;BME280;20944;47.048;15.390;2023-05-11T11:16:35;97278.31;;;13.05;100.00
12759;BME280;20944;47.048;15.390;2023-05-11T11:19:36;97278.84;;;13.13;100.00
12759;BME280;20944;47.048;15.390;2023-05-11T11:22:05;97278.66;;;13.18;100.00
12759;BME280;20944;47.048;15.390;2023-05-11T11:24:42;97255.78;;;13.00;100.00
12759;BME280;20944;47.048;15.390;2023-05-11T11:27:13;97222.25;;;12.84;100.00
12759;BME280;20944;47.048;15.390;2023-05-11T11:30:14;97280.69;;;13.11;100.00
12759;BME280;20944;47.048;15.390;2023-05-11T11:32:43;97276.22;;;13.13;100.00
12759;BME280;20944;47.048;15.390;2023-05-11T11:35:45;97275.59;;;13.08;100.00
12759;BME280;20944;47.048;15.390;2023-05-11T11:38:16;97215.88;;;12.69;100.00
12759;BME280;20944;47.048;15.390;2023-05-11T11:40:45;97285.50;;;13.02;100.00
12759;BME280;20944;47.048;15.390;2023-05-11T11:43:20;97272.28;;;13.03;100.00
12759;BME280;20944;47.048;15.390;2023-05-11T11:45:50;97268.59;;;13.07;100.00
12759;BME280;20944;47.048;15.390;2023-05-11T11:48:28;97223.50;;;12.76;100.00
12759;BME280;20944;47.048;15.390;2023-05-11T11:51:01;97219.31;;;12.72;100.00
12759;BME280;20944;47.048;15.390;2023-05-11T11:54:03;97276.16;;;13.15;100.00
12759;BME280;20944;47.048;15.390;2023-05-11T11:56:42;97191.88;;;12.57;100.00
12759;BME280;20944;47.048;15.390;2023-05-11T11:59:13;97270.25;;;13.10;100.00
12759;BME280;20944;47.048;15.390;2023-05-11T12:01:43;97262.16;;;13.14;100.00
12759;BME280;20944;47.048;15.390;2023-05-11T12:04:43;97230.47;;;12.97;100.00
12759;BME280;20944;47.048;15.390;2023-05-11T12:07:14;97271.44;;;13.23;100.00
12759;BME280;20944;47.048;15.390;2023-05-11T12:09:44;97267.97;;;13.22;100.00
12759;BME280;20944;47.048;15.390;2023-05-11T12:12:16;97252.88;;;13.06;100.00
12759;BME280;20944;47.048;15.390;2023-05-11T12:14:47;97265.91;;;13.29;100.00
12759;BME280;20944;47.048;15.390;2023-05-11T12:17:23;97257.66;;;13.37;100.00
12759;BME280;20944;47.048;15.390;2023-05-11T12:19:51;97238.09;;;13.23;100.00
12759;BME280;20944;47.048;15.390;2023-05-11T12:22:23;97262.06;;;13.36;100.00
12759;BME280;20944;47.048;15.390;2023-05-11T12:24:54;97236.56;;;13.18;100.00
12759;BME280;20944;47.048;15.390;2023-05-11T12:27:26;97225.19;;;13.17;100.00
12759;BME280;20944;47.048;15.390;2023-05-11T12:29:56;97262.94;;;13.37;100.00
12759;BME280;20944;47.048;15.390;2023-05-11T12:32:26;97254.97;;;13.38;100.00
12759;BME280;20944;47.048;15.390;2023-05-11T12:34:59;97265.63;;;13.35;100.00
12759;BME280;20944;47.048;15.390;2023-05-11T12:37:28;97258.41;;;13.40;100.00
12759;BME280;20944;47.048;15.390;2023-05-11T12:39:58;97256.53;;;13.42;100.00
12759;BME280;20944;47.048;15.390;2023-05-11T12:42:27;97251.56;;;13.36;100.00
12759;BME280;20944;47.048;15.390;2023-05-11T12:44:57;97236.81;;;13.12;100.00
12759;BME280;20944;47.048;15.390;2023-05-11T12:47:25;97218.69;;;13.06;100.00
12759;BME280;20944;47.048;15.390;2023-05-11T12:49:54;97218.75;;;13.04;100.00
12759;BME280;20944;47.048;15.390;2023-05-11T12:52:22;97125.66;;;12.49;100.00
12759;BME280;20944;47.048;15.390;2023-05-11T12:54:51;97246.13;;;13.20;100.00
12759;BME280;20944;47.048;15.390;2023-05-11T12:57:24;97252.59;;;13.12;100.00
12759;BME280;20944;47.048;15.390;2023-05-11T13:00:09;97226.13;;;12.96;100.00
12759;BME280;20944;47.048;15.390;2023-05-11T13:02:49;97234.81;;;12.98;100.00
12759;BME280;20944;47.048;15.390;2023-05-11T13:05:22;97236.59;;;12.98;100.00
12759;BME280;20944;47.048;15.390;2023-05-11T13:08:01;97249.72;;;12.98;100.00
12759;BME280;20944;47.048;15.390;2023-05-11T13:10:30;97244.56;;;12.96;100.00